createdAt,value
2019-01-29T00:01:40.421Z,0.30
2019-01-29T00:04:10.261Z,0.30
2019-01-29T00:06:39.674Z,0.30
2019-01-29T00:09:10.054Z,0.30
2019-01-29T00:11:40.549Z,0.30
2019-01-29T00:14:11.691Z,0.30
2019-01-29T00:16:41.258Z,0.20
2019-01-29T00:19:10.164Z,0.20
2019-01-29T00:21:39.213Z,0.20
2019-01-29T00:24:08.598Z,0.30
2019-01-29T00:26:40.386Z,0.20
2019-01-29T00:29:09.541Z,0.20
2019-01-29T00:31:38.746Z,0.20
2019-01-29T00:34:07.890Z,0.20
2019-01-29T00:36:37.155Z,0.30
2019-01-29T00:39:08.667Z,0.20
2019-01-29T00:41:37.725Z,0.20
2019-01-29T00:44:06.809Z,0.20
2019-01-29T00:46:36.093Z,0.30
2019-01-29T00:49:05.589Z,0.20
2019-01-29T00:51:38.075Z,0.20
2019-01-29T00:54:07.545Z,0.20
2019-01-29T00:56:36.955Z,0.20
2019-01-29T00:59:06.352Z,0.20
2019-01-29T01:01:35.754Z,0.20
2019-01-29T01:04:05.408Z,0.30
2019-01-29T01:06:34.469Z,0.30
2019-01-29T01:09:05.550Z,0.30
2019-01-29T01:11:34.819Z,0.30
2019-01-29T01:14:04.186Z,0.30
2019-01-29T01:16:33.502Z,0.30
2019-01-29T01:19:02.490Z,0.40
2019-01-29T01:21:31.803Z,0.30
2019-01-29T01:24:00.982Z,0.30
2019-01-29T01:26:29.882Z,0.30
2019-01-29T01:29:00.790Z,0.30
2019-01-29T01:31:29.871Z,0.30
2019-01-29T01:33:58.831Z,0.30
2019-01-29T01:36:27.973Z,0.20
2019-01-29T01:38:57.009Z,0.20
2019-01-29T01:41:26.081Z,0.10
2019-01-29T01:43:55.080Z,0.10
2019-01-29T01:46:24.289Z,0.10
2019-01-29T01:48:53.707Z,0.10
2019-01-29T01:51:22.955Z,0.10
2019-01-29T01:53:51.970Z,0.10
2019-01-29T01:56:21.432Z,0.10
2019-01-29T01:58:50.866Z,0.10
2019-01-29T02:01:20.003Z,0.20
2019-01-29T02:03:49.197Z,0.10
2019-01-29T02:06:18.277Z,0.20
2019-01-29T02:08:47.699Z,0.20
2019-01-29T02:11:17.028Z,0.20
2019-01-29T02:13:49.006Z,0.20
2019-01-29T02:16:18.088Z,0.20
2019-01-29T02:18:47.433Z,0.20
2019-01-29T02:21:16.942Z,0.20
2019-01-29T02:23:46.134Z,0.20
2019-01-29T02:26:15.153Z,0.20
2019-01-29T02:28:44.173Z,0.20
2019-01-29T02:31:13.614Z,0.20
2019-01-29T02:33:42.801Z,0.20
2019-01-29T02:36:12.146Z,0.20
2019-01-29T02:38:41.479Z,0.20
2019-01-29T02:41:10.574Z,0.10
2019-01-29T02:43:39.951Z,0.10
2019-01-29T02:46:09.394Z,-0.10
2019-01-29T02:48:38.752Z,-0.20
2019-01-29T02:51:08.056Z,-0.30
2019-01-29T02:53:36.952Z,-0.40
2019-01-29T02:56:06.546Z,-0.50
2019-01-29T02:58:37.734Z,-0.60
2019-01-29T03:01:09.697Z,-0.70
2019-01-29T03:03:40.885Z,-0.70
2019-01-29T03:06:12.805Z,-0.70
2019-01-29T03:08:42.418Z,-0.60
2019-01-29T03:11:11.522Z,-0.60
2019-01-29T03:13:43.333Z,-0.60
2019-01-29T03:16:12.813Z,-0.60
2019-01-29T03:18:42.125Z,-0.60
2019-01-29T03:21:13.389Z,-0.60
2019-01-29T03:23:42.543Z,-0.60
2019-01-29T03:26:11.790Z,-0.50
2019-01-29T03:28:41.126Z,-0.50
2019-01-29T03:31:10.527Z,-0.40
2019-01-29T03:33:42.814Z,-0.30
2019-01-29T03:36:12.235Z,-0.30
2019-01-29T03:38:41.574Z,-0.20
2019-01-29T03:41:10.934Z,-0.20
2019-01-29T03:43:40.865Z,-0.20
2019-01-29T03:46:10.314Z,-0.20
2019-01-29T03:48:39.711Z,-0.10
2019-01-29T03:51:10.908Z,-0.10
2019-01-29T03:53:41.293Z,0.00
2019-01-29T03:56:10.708Z,-0.10
2019-01-29T03:58:40.020Z,-0.10
2019-01-29T04:01:09.387Z,0.00
2019-01-29T04:03:38.446Z,0.00
2019-01-29T04:06:07.888Z,0.00
2019-01-29T04:08:37.302Z,0.00
2019-01-29T04:11:06.930Z,0.00
2019-01-29T04:13:35.962Z,0.00
2019-01-29T04:16:06.501Z,0.00
2019-01-29T04:18:35.464Z,0.00
2019-01-29T04:21:05.945Z,0.00
2019-01-29T04:23:34.930Z,0.00
2019-01-29T04:26:03.993Z,0.00
2019-01-29T04:28:33.237Z,0.00
2019-01-29T04:31:02.610Z,-0.10
2019-01-29T04:33:32.085Z,-0.20
2019-01-29T04:36:01.509Z,-0.20
2019-01-29T04:38:30.667Z,-0.30
2019-01-29T04:40:59.925Z,-0.30
2019-01-29T04:43:29.360Z,-0.30
2019-01-29T04:45:58.654Z,-0.20
2019-01-29T04:48:27.765Z,-0.20
2019-01-29T04:50:57.085Z,-0.10
2019-01-29T04:53:26.787Z,-0.10
2019-01-29T04:55:56.130Z,-0.10
2019-01-29T04:58:25.553Z,-0.10
2019-01-29T05:00:54.946Z,-0.10
2019-01-29T05:03:26.114Z,-0.10
2019-01-29T05:05:55.786Z,-0.10
2019-01-29T05:08:25.208Z,-0.10
2019-01-29T05:10:54.738Z,-0.10
2019-01-29T05:13:24.207Z,-0.10
2019-01-29T05:15:53.385Z,-0.10
2019-01-29T05:18:23.613Z,-0.10
2019-01-29T05:20:52.857Z,-0.10
2019-01-29T05:23:21.828Z,-0.10
2019-01-29T05:25:51.153Z,-0.20
2019-01-29T05:28:20.658Z,-0.20
2019-01-29T05:30:52.638Z,-0.20
2019-01-29T05:33:21.820Z,-0.20
2019-01-29T05:35:51.335Z,-0.30
2019-01-29T05:38:20.333Z,-0.30
2019-01-29T05:40:52.058Z,-0.30
2019-01-29T05:43:21.307Z,-0.40
2019-01-29T05:45:50.781Z,-0.40
2019-01-29T05:48:19.967Z,-0.50
2019-01-29T05:50:49.086Z,-0.50
2019-01-29T05:53:18.077Z,-0.50
2019-01-29T05:55:48.478Z,-0.50
2019-01-29T05:58:17.784Z,-0.50
2019-01-29T06:00:47.151Z,-0.50
2019-01-29T06:03:16.128Z,-0.50
2019-01-29T06:05:46.682Z,-0.50
2019-01-29T06:08:15.857Z,-0.50
2019-01-29T06:10:45.076Z,-0.50
2019-01-29T06:13:14.457Z,-0.50
2019-01-29T06:15:43.887Z,-0.60
2019-01-29T06:18:13.125Z,-0.60
2019-01-29T06:20:42.358Z,-0.60
2019-01-29T06:23:15.542Z,-0.60
2019-01-29T06:25:46.824Z,-0.70
2019-01-29T06:28:17.450Z,-0.70
2019-01-29T06:30:46.788Z,-0.60
2019-01-29T06:33:16.050Z,-0.60
2019-01-29T06:35:45.241Z,-0.60
2019-01-29T06:38:14.298Z,-0.60
2019-01-29T06:40:43.797Z,-0.50
2019-01-29T06:43:13.011Z,-0.50
2019-01-29T06:45:43.802Z,-0.50
2019-01-29T06:48:13.000Z,-0.50
2019-01-29T06:50:42.838Z,-0.40
2019-01-29T06:53:11.984Z,-0.40
2019-01-29T06:55:41.232Z,-0.40
2019-01-29T06:58:10.466Z,-0.40
2019-01-29T07:00:39.633Z,-0.40
2019-01-29T07:03:08.762Z,-0.50
2019-01-29T07:05:37.834Z,-0.50
2019-01-29T07:08:07.136Z,-0.40
2019-01-29T07:10:36.469Z,-0.40
2019-01-29T07:13:05.966Z,-0.30
2019-01-29T07:15:52.644Z,-0.30
2019-01-29T07:18:38.672Z,-0.20
2019-01-29T07:21:09.545Z,-0.20
2019-01-29T07:23:38.643Z,-0.10
2019-01-29T07:26:07.810Z,0.00
2019-01-29T07:28:36.812Z,0.10
2019-01-29T07:31:06.271Z,0.10
2019-01-29T07:33:35.454Z,0.20
2019-01-29T07:36:04.839Z,0.20
2019-01-29T07:38:33.957Z,0.30
2019-01-29T07:41:03.121Z,0.30
2019-01-29T07:43:32.293Z,0.40
2019-01-29T07:46:01.286Z,0.40
2019-01-29T07:48:30.371Z,0.40
2019-01-29T07:50:59.449Z,0.50
2019-01-29T07:53:28.874Z,0.50
2019-01-29T07:56:00.503Z,0.50
2019-01-29T07:58:29.658Z,0.50
2019-01-29T08:00:59.111Z,0.60
2019-01-29T08:03:28.399Z,0.60
2019-01-29T08:05:57.611Z,0.60
2019-01-29T08:08:26.745Z,0.60
2019-01-29T08:10:55.817Z,0.70
2019-01-29T08:13:25.177Z,0.70
2019-01-29T08:15:54.234Z,0.70
2019-01-29T08:18:23.989Z,0.70
2019-01-29T08:20:53.061Z,0.70
2019-01-29T08:23:24.587Z,0.80
2019-01-29T08:25:54.013Z,0.90
2019-01-29T08:28:23.100Z,0.90
2019-01-29T08:30:52.101Z,1.00
2019-01-29T08:33:21.313Z,1.00
2019-01-29T08:35:50.604Z,1.10
2019-01-29T08:38:19.625Z,1.10
2019-01-29T08:40:49.793Z,1.20
2019-01-29T08:43:18.899Z,1.20
2019-01-29T08:45:48.026Z,1.30
2019-01-29T08:48:17.290Z,1.30
2019-01-29T08:50:46.222Z,1.40
2019-01-29T08:53:15.464Z,1.30
2019-01-29T08:55:45.314Z,1.40
2019-01-29T08:58:14.334Z,1.40
2019-01-29T09:00:43.404Z,1.50
2019-01-29T09:03:12.503Z,1.50
2019-01-29T09:05:44.094Z,1.70
2019-01-29T09:08:13.384Z,1.80
2019-01-29T09:10:42.690Z,1.80
2019-01-29T09:13:11.906Z,1.90
2019-01-29T09:15:41.021Z,1.90
2019-01-29T09:18:10.160Z,2.00
2019-01-29T09:20:39.307Z,2.10
2019-01-29T09:23:08.297Z,2.20
2019-01-29T09:25:37.594Z,2.30
2019-01-29T09:28:06.613Z,2.30
2019-01-29T09:30:35.954Z,2.40
2019-01-29T09:33:05.402Z,2.50
2019-01-29T09:35:34.558Z,2.60
2019-01-29T09:38:05.351Z,2.50
2019-01-29T09:40:34.414Z,2.60
2019-01-29T09:43:04.133Z,2.60
2019-01-29T09:45:33.395Z,2.60
2019-01-29T09:48:02.903Z,2.60
2019-01-29T09:50:31.921Z,2.50
2019-01-29T09:53:01.072Z,2.50
2019-01-29T09:55:30.193Z,2.50
2019-01-29T09:57:59.249Z,2.50
2019-01-29T10:00:30.532Z,2.50
2019-01-29T10:02:59.641Z,2.50
2019-01-29T10:05:29.277Z,2.60
2019-01-29T10:07:58.437Z,2.60
2019-01-29T10:10:27.417Z,2.70
2019-01-29T10:12:56.528Z,2.80
2019-01-29T10:15:27.977Z,2.80
2019-01-29T10:17:57.188Z,2.80
2019-01-29T10:20:26.342Z,2.90
2019-01-29T10:22:55.808Z,3.00
2019-01-29T10:25:24.849Z,3.20
2019-01-29T10:27:54.001Z,3.20
2019-01-29T10:30:23.858Z,3.30
2019-01-29T10:32:53.077Z,3.40
2019-01-29T10:35:22.586Z,3.40
2019-01-29T10:37:52.106Z,3.50
2019-01-29T10:40:22.099Z,3.60
2019-01-29T10:42:53.229Z,3.60
2019-01-29T10:45:22.727Z,3.50
2019-01-29T10:47:51.883Z,3.40
2019-01-29T10:50:22.942Z,3.50
2019-01-29T10:52:52.476Z,3.50
2019-01-29T10:55:21.623Z,3.60
2019-01-29T10:57:50.611Z,3.60
2019-01-29T11:00:23.007Z,3.50
2019-01-29T11:02:52.262Z,3.50
2019-01-29T11:05:22.652Z,3.40
2019-01-29T11:07:51.972Z,3.40
2019-01-29T11:10:21.297Z,3.60
2019-01-29T11:12:50.419Z,3.70
2019-01-29T11:15:24.966Z,3.80
2019-01-29T11:17:54.216Z,3.70
2019-01-29T11:20:23.773Z,3.70
2019-01-29T11:22:52.854Z,3.90
2019-01-29T11:25:24.147Z,4.00
2019-01-29T11:27:53.529Z,3.90
2019-01-29T11:30:24.936Z,4.00
2019-01-29T11:32:54.066Z,4.10
2019-01-29T11:35:23.067Z,4.20
2019-01-29T11:37:52.578Z,4.10
2019-01-29T11:40:23.822Z,4.10
2019-01-29T11:42:53.119Z,3.90
2019-01-29T11:45:28.028Z,3.90
2019-01-29T11:47:57.162Z,3.80
2019-01-29T11:50:26.434Z,3.80
2019-01-29T11:52:56.101Z,3.80
2019-01-29T11:55:25.134Z,3.70
2019-01-29T11:57:54.110Z,3.80
2019-01-29T12:00:32.642Z,3.60
2019-01-29T12:03:01.690Z,3.30
2019-01-29T12:05:31.415Z,3.10
2019-01-29T12:08:00.419Z,2.90
2019-01-29T12:10:29.533Z,3.00
2019-01-29T12:12:58.765Z,3.00
2019-01-29T12:15:27.951Z,3.10
2019-01-29T12:17:56.943Z,3.10
2019-01-29T12:20:26.032Z,3.00
2019-01-29T12:22:55.058Z,3.20
2019-01-29T12:25:24.685Z,3.20
2019-01-29T12:27:53.767Z,3.30
2019-01-29T12:30:23.324Z,3.30
2019-01-29T12:32:52.958Z,3.30
2019-01-29T12:35:23.713Z,3.20
2019-01-29T12:37:53.088Z,3.00
2019-01-29T12:40:22.209Z,2.90
2019-01-29T12:42:52.436Z,3.10
2019-01-29T12:45:22.125Z,3.30
2019-01-29T12:47:51.334Z,3.60
2019-01-29T12:50:22.554Z,3.90
2019-01-29T12:53:06.249Z,4.00
2019-01-29T12:55:35.248Z,3.90
2019-01-29T12:58:06.459Z,3.70
2019-01-29T13:00:47.148Z,3.70
2019-01-29T13:03:16.338Z,3.60
2019-01-29T13:05:45.439Z,3.60
2019-01-29T13:08:14.804Z,3.90
2019-01-29T13:10:44.080Z,4.00
2019-01-29T13:13:13.342Z,4.00
2019-01-29T13:15:42.518Z,4.00
2019-01-29T13:18:12.155Z,3.90
2019-01-29T13:20:41.493Z,3.80
2019-01-29T13:23:10.719Z,3.90
2019-01-29T13:25:39.866Z,3.80
2019-01-29T13:28:08.863Z,3.80
2019-01-29T13:30:37.956Z,3.50
2019-01-29T13:33:10.026Z,3.50
2019-01-29T13:35:39.394Z,3.50
2019-01-29T13:38:09.655Z,3.60
2019-01-29T13:40:38.855Z,3.60
2019-01-29T13:43:08.650Z,3.70
2019-01-29T13:45:38.337Z,3.60
2019-01-29T13:48:07.631Z,3.70
2019-01-29T13:50:42.214Z,3.70
2019-01-29T13:53:13.216Z,3.80
2019-01-29T13:55:42.403Z,3.70
2019-01-29T13:58:11.641Z,3.70
2019-01-29T14:00:41.031Z,3.70
2019-01-29T14:03:11.493Z,3.90
2019-01-29T14:05:40.693Z,4.10
2019-01-29T14:08:10.365Z,4.20
2019-01-29T14:10:39.528Z,4.30
2019-01-29T14:13:08.752Z,4.40
2019-01-29T14:15:55.481Z,4.40
2019-01-29T14:18:26.505Z,4.30
2019-01-29T14:20:55.949Z,4.20
2019-01-29T14:23:25.199Z,4.20
2019-01-29T14:25:54.378Z,4.00
2019-01-29T14:28:23.805Z,3.70
2019-01-29T14:30:53.063Z,3.80
2019-01-29T14:33:22.180Z,3.70
2019-01-29T14:35:51.205Z,3.80
2019-01-29T14:39:03.946Z,3.70
2019-01-29T14:41:33.190Z,3.70
2019-01-29T14:44:02.333Z,3.50
2019-01-29T14:46:31.554Z,3.50
2019-01-29T14:49:00.878Z,3.30
2019-01-29T14:51:30.057Z,3.30
2019-01-29T14:54:01.728Z,3.30
2019-01-29T14:56:30.878Z,3.30
2019-01-29T14:59:00.281Z,3.20
2019-01-29T15:01:29.383Z,3.10
2019-01-29T15:03:58.511Z,3.10
2019-01-29T15:06:32.628Z,3.10
2019-01-29T15:08:58.945Z,3.10
2019-01-29T15:11:30.495Z,3.10
2019-01-29T15:13:59.829Z,3.10
2019-01-29T15:16:52.153Z,3.10
2019-01-29T15:19:23.660Z,3.10
2019-01-29T15:21:52.928Z,3.00
2019-01-29T15:24:22.090Z,3.00
2019-01-29T15:26:51.566Z,3.10
2019-01-29T15:29:20.715Z,3.10
2019-01-29T15:31:49.988Z,3.10
2019-01-29T15:34:20.282Z,3.00
2019-01-29T15:36:51.427Z,2.90
2019-01-29T15:39:20.428Z,2.80
2019-01-29T15:41:49.732Z,2.60
2019-01-29T15:44:18.814Z,2.50
2019-01-29T15:46:48.262Z,2.30
2019-01-29T15:49:17.388Z,2.20
2019-01-29T15:51:46.842Z,2.00
2019-01-29T15:54:16.081Z,1.80
2019-01-29T15:56:45.199Z,1.70
2019-01-29T15:59:14.353Z,1.60
2019-01-29T16:01:43.361Z,1.50
2019-01-29T16:04:12.506Z,1.40
2019-01-29T16:06:42.028Z,1.20
2019-01-29T16:09:11.457Z,1.10
2019-01-29T16:12:29.661Z,1.00
2019-01-29T16:14:59.367Z,0.90
2019-01-29T16:17:29.847Z,0.80
2019-01-29T16:19:58.918Z,0.70
2019-01-29T16:22:28.013Z,0.60
2019-01-29T16:24:58.059Z,0.50
2019-01-29T16:27:27.337Z,0.40
2019-01-29T16:29:56.713Z,0.30
2019-01-29T16:32:27.759Z,0.20
2019-01-29T16:34:57.415Z,0.20
2019-01-29T16:37:26.874Z,0.10
2019-01-29T16:39:56.641Z,0.00
2019-01-29T16:42:27.621Z,0.00
2019-01-29T16:44:57.969Z,-0.10
2019-01-29T16:47:28.122Z,-0.10
2019-01-29T16:49:59.755Z,-0.20
2019-01-29T16:52:32.441Z,-0.20
2019-01-29T16:55:03.007Z,-0.30
2019-01-29T16:57:32.473Z,-0.30
2019-01-29T17:00:03.926Z,-0.30
2019-01-29T17:02:35.209Z,-0.40
2019-01-29T17:05:06.003Z,-0.40
2019-01-29T17:07:36.260Z,-0.50
2019-01-29T17:10:07.334Z,-0.50
2019-01-29T17:12:36.986Z,-0.60
2019-01-29T17:15:09.026Z,-0.60
2019-01-29T17:17:40.037Z,-0.60
2019-01-29T17:20:15.254Z,-0.70
2019-01-29T17:22:45.443Z,-0.70
2019-01-29T17:25:16.196Z,-0.80
2019-01-29T17:27:46.070Z,-0.80
2019-01-29T17:30:20.354Z,-0.80
2019-01-29T17:32:50.533Z,-0.80
2019-01-29T17:35:21.410Z,-0.90
2019-01-29T17:37:52.429Z,-0.90
2019-01-29T17:40:23.048Z,-0.90
2019-01-29T17:42:54.711Z,-0.80
2019-01-29T17:45:30.886Z,-0.80
2019-01-29T17:48:01.834Z,-1.10
2019-01-29T17:50:34.650Z,-0.90
2019-01-29T17:53:06.074Z,-0.90
2019-01-29T17:55:42.062Z,-0.90
2019-01-29T17:58:14.009Z,-0.90
2019-01-29T18:00:55.658Z,-0.90
2019-01-29T18:03:27.162Z,-1.00
2019-01-29T18:05:58.969Z,-1.10
2019-01-29T18:08:30.605Z,-1.20
2019-01-29T18:11:01.546Z,-1.20
2019-01-29T18:13:32.857Z,-1.20
2019-01-29T18:16:04.586Z,-1.00
2019-01-29T18:18:35.533Z,-0.70
2019-01-29T18:21:05.937Z,-0.50
2019-01-29T18:23:36.874Z,-0.40
2019-01-29T18:26:08.003Z,-0.50
2019-01-29T18:28:38.258Z,-0.60
2019-01-29T18:31:10.678Z,-0.70
2019-01-29T18:33:43.170Z,-0.70
2019-01-29T18:36:14.477Z,-0.70
2019-01-29T18:38:45.533Z,-0.80
2019-01-29T18:41:16.868Z,-0.80
2019-01-29T18:43:48.573Z,-0.80
2019-01-29T18:46:20.064Z,-0.80
2019-01-29T18:48:52.557Z,-0.80
2019-01-29T18:51:24.760Z,-0.60
2019-01-29T18:53:56.166Z,-0.70
2019-01-29T18:56:27.833Z,-0.80
2019-01-29T18:58:59.981Z,-0.80
2019-01-29T19:01:31.981Z,-0.90
2019-01-29T19:04:04.318Z,-1.00
2019-01-29T19:06:38.828Z,-1.00
2019-01-29T19:09:12.304Z,-0.90
2019-01-29T19:11:44.565Z,-0.90
2019-01-29T19:14:16.438Z,-0.70
2019-01-29T19:16:47.871Z,-0.80
2019-01-29T19:19:19.818Z,-0.90
2019-01-29T19:21:51.589Z,-0.90
2019-01-29T19:24:22.981Z,-1.00
2019-01-29T19:26:55.502Z,-1.00
2019-01-29T19:29:27.824Z,-1.00
2019-01-29T19:31:59.940Z,-1.00
2019-01-29T19:34:31.918Z,-1.00
2019-01-29T19:37:04.495Z,-1.10
2019-01-29T19:39:36.575Z,-1.00
2019-01-29T19:42:08.909Z,-1.00
2019-01-29T19:44:41.399Z,-0.90
2019-01-29T19:47:13.422Z,-1.00
2019-01-29T19:49:45.902Z,-1.00
2019-01-29T19:52:18.582Z,-0.90
2019-01-29T19:54:50.470Z,-0.80
2019-01-29T19:57:24.930Z,-0.70
2019-01-29T19:59:57.355Z,-0.70
2019-01-29T20:02:30.266Z,-0.80
2019-01-29T20:05:05.150Z,-0.80
2019-01-29T20:07:38.942Z,-0.90
2019-01-29T20:10:12.986Z,-0.90
2019-01-29T20:12:46.039Z,-0.80
2019-01-29T20:15:19.268Z,-0.80
2019-01-29T20:17:52.474Z,-0.90
2019-01-29T20:20:29.393Z,-0.90
2019-01-29T20:23:07.589Z,-0.90
2019-01-29T20:25:36.202Z,-0.80
2019-01-29T20:28:08.101Z,-0.80
2019-01-29T20:30:40.425Z,-0.80
2019-01-29T20:33:11.743Z,-0.90
2019-01-29T20:35:43.246Z,-0.80
2019-01-29T20:38:14.459Z,-0.80
2019-01-29T20:40:45.489Z,-0.80
2019-01-29T20:43:15.675Z,-0.80
2019-01-29T20:45:46.572Z,-0.80
2019-01-29T20:48:16.778Z,-0.80
2019-01-29T20:50:48.471Z,-0.80
2019-01-29T20:53:17.563Z,-0.80
2019-01-29T20:55:46.793Z,-0.80
2019-01-29T20:58:16.172Z,-0.80
2019-01-29T21:00:45.678Z,-0.80
2019-01-29T21:03:14.608Z,-0.80
2019-01-29T21:05:43.971Z,-0.80
2019-01-29T21:08:13.884Z,-0.80
2019-01-29T21:10:43.005Z,-0.90
2019-01-29T21:13:14.085Z,-0.90
2019-01-29T21:15:43.439Z,-0.80
2019-01-29T21:18:12.477Z,-0.80
2019-01-29T21:20:42.389Z,-0.80
2019-01-29T21:23:12.205Z,-0.80
2019-01-29T21:25:41.785Z,-0.80
2019-01-29T21:28:10.771Z,-0.70
2019-01-29T21:30:43.948Z,-0.70
2019-01-29T21:33:13.173Z,-0.70
2019-01-29T21:35:42.649Z,-0.80
2019-01-29T21:38:13.075Z,-0.80
2019-01-29T21:40:42.378Z,-0.80
2019-01-29T21:43:11.903Z,-0.80
2019-01-29T21:45:41.491Z,-0.70
2019-01-29T21:48:12.170Z,-0.70
2019-01-29T21:50:41.474Z,-0.80
2019-01-29T21:53:11.337Z,-0.80
2019-01-29T21:55:41.979Z,-0.90
2019-01-29T21:58:13.696Z,-0.90
2019-01-29T22:00:44.938Z,-0.90
2019-01-29T22:03:14.939Z,-1.00
2019-01-29T22:05:44.381Z,-1.00
2019-01-29T22:08:13.656Z,-1.00
2019-01-29T22:10:42.816Z,-1.00
2019-01-29T22:13:12.936Z,-1.00
2019-01-29T22:15:42.354Z,-1.00
2019-01-29T22:18:13.070Z,-1.00
2019-01-29T22:20:44.361Z,-1.00
2019-01-29T22:23:15.983Z,-1.00
2019-01-29T22:25:46.899Z,-1.10
2019-01-29T22:28:16.340Z,-1.10
2019-01-29T22:30:46.309Z,-1.10
2019-01-29T22:33:17.808Z,-1.00
2019-01-29T22:35:47.003Z,-1.00
2019-01-29T22:38:16.514Z,-1.10
2019-01-29T22:40:46.277Z,-1.20
2019-01-29T22:43:15.365Z,-1.30
2019-01-29T22:45:44.526Z,-1.30
2019-01-29T22:48:15.932Z,-1.30
2019-01-29T22:50:45.479Z,-1.40
2019-01-29T22:53:14.877Z,-1.50
2019-01-29T22:55:43.998Z,-1.50
2019-01-29T22:58:13.157Z,-1.50
2019-01-29T23:00:49.767Z,-1.60
2019-01-29T23:03:21.889Z,-1.60
2019-01-29T23:06:02.200Z,-1.50
2019-01-29T23:08:31.122Z,-1.50
2019-01-29T23:11:00.533Z,-1.40
2019-01-29T23:13:30.238Z,-1.30
2019-01-29T23:15:59.434Z,-1.20
2019-01-29T23:18:30.884Z,-1.30
2019-01-29T23:21:01.856Z,-1.30
2019-01-29T23:23:30.961Z,-1.20
2019-01-29T23:26:00.689Z,-1.20
2019-01-29T23:28:30.442Z,-1.30
2019-01-29T23:31:02.198Z,-1.30
2019-01-29T23:33:31.537Z,-1.40
2019-01-29T23:36:00.608Z,-1.40
2019-01-29T23:38:31.530Z,-1.40
2019-01-29T23:41:01.965Z,-1.60
2019-01-29T23:43:31.148Z,-1.70
2019-01-29T23:46:00.975Z,-1.90
2019-01-29T23:48:31.615Z,-2.00
2019-01-29T23:51:00.847Z,-1.90
2019-01-29T23:53:30.233Z,-1.80
2019-01-29T23:55:59.783Z,-1.80
2019-01-29T23:58:29.120Z,-1.80
